createdAt,value
2023-01-25T00:02:06.748Z,5.97
2023-01-25T00:04:36.511Z,5.77
2023-01-25T00:07:06.072Z,6.57
2023-01-25T00:09:35.594Z,5.97
2023-01-25T00:12:05.186Z,5.80
2023-01-25T00:14:34.680Z,6.13
2023-01-25T00:17:06.955Z,5.93
2023-01-25T00:19:36.461Z,6.47
2023-01-25T00:22:05.936Z,6.30
2023-01-25T00:24:35.516Z,5.30
2023-01-25T00:27:05.579Z,6.27
2023-01-25T00:29:35.175Z,7.17
2023-01-25T00:32:33.558Z,6.73
2023-01-25T00:35:03.164Z,5.93
2023-01-25T00:37:39.181Z,5.40
2023-01-25T00:40:09.607Z,6.00
2023-01-25T00:42:41.399Z,6.83
2023-01-25T00:45:13.442Z,5.67
2023-01-25T00:47:45.542Z,6.20
2023-01-25T00:50:15.061Z,7.00
2023-01-25T00:52:44.562Z,6.00
2023-01-25T00:55:14.094Z,5.80
2023-01-25T00:57:43.507Z,6.13
2023-01-25T01:00:13.977Z,6.73
2023-01-25T01:02:46.142Z,6.83
2023-01-25T01:05:15.851Z,6.10
2023-01-25T01:07:46.260Z,5.47
2023-01-25T01:10:16.084Z,5.80
2023-01-25T01:12:46.048Z,5.97
2023-01-25T01:15:15.530Z,6.03
2023-01-25T01:17:47.698Z,5.40
2023-01-25T01:20:17.518Z,6.63
2023-01-25T01:22:47.360Z,5.50
2023-01-25T01:25:17.140Z,5.90
2023-01-25T01:27:46.674Z,5.87
2023-01-25T01:30:16.549Z,5.27
2023-01-25T01:32:49.021Z,5.93
2023-01-25T01:35:18.769Z,6.40
2023-01-25T01:37:48.237Z,6.30
2023-01-25T01:40:18.079Z,6.47
2023-01-25T01:43:00.419Z,6.83
2023-01-25T01:45:46.238Z,6.70
2023-01-25T01:48:22.205Z,6.10
2023-01-25T01:50:53.843Z,6.37
2023-01-25T01:53:23.756Z,6.23
2023-01-25T01:55:53.727Z,5.97
2023-01-25T01:58:23.253Z,7.07
2023-01-25T02:00:52.981Z,6.87
2023-01-25T02:03:25.801Z,6.60
2023-01-25T02:05:58.956Z,6.57
2023-01-25T02:08:29.229Z,6.47
2023-01-25T02:11:01.992Z,6.90
2023-01-25T02:13:31.925Z,6.77
2023-01-25T02:16:01.460Z,6.57
2023-01-25T02:18:34.145Z,5.97
2023-01-25T02:21:03.961Z,7.07
2023-01-25T02:23:36.754Z,7.00
2023-01-25T02:26:09.272Z,6.40
2023-01-25T02:28:41.431Z,6.03
2023-01-25T02:31:11.082Z,6.17
2023-01-25T02:33:40.660Z,6.50
2023-01-25T02:36:22.105Z,7.40
2023-01-25T02:38:54.702Z,6.20
2023-01-25T02:41:28.297Z,6.60
2023-01-25T02:43:57.767Z,6.13
2023-01-25T02:46:28.302Z,6.10
2023-01-25T02:48:58.409Z,5.77
2023-01-25T02:51:31.381Z,5.70
2023-01-25T02:54:00.911Z,7.50
2023-01-25T02:56:33.245Z,6.57
2023-01-25T02:59:05.662Z,6.60
2023-01-25T03:01:36.952Z,6.10
2023-01-25T03:04:07.177Z,6.20
2023-01-25T03:06:37.059Z,7.20
2023-01-25T03:09:07.047Z,5.90
2023-01-25T03:11:39.314Z,6.20
2023-01-25T03:14:08.849Z,7.00
2023-01-25T03:16:38.408Z,6.47
2023-01-25T03:19:08.839Z,6.37
2023-01-25T03:21:38.255Z,6.33
2023-01-25T03:24:09.052Z,6.80
2023-01-25T03:26:58.807Z,6.07
2023-01-25T03:29:36.582Z,6.50
2023-01-25T03:32:09.257Z,5.90
2023-01-25T03:34:39.134Z,5.97
2023-01-25T03:37:08.914Z,5.97
2023-01-25T03:39:40.259Z,6.27
2023-01-25T03:42:12.408Z,5.80
2023-01-25T03:44:42.432Z,6.00
2023-01-25T03:47:12.099Z,6.07
2023-01-25T03:49:42.350Z,6.30
2023-01-25T03:52:12.292Z,6.67
2023-01-25T03:54:44.118Z,6.00
2023-01-25T03:57:16.407Z,6.30
2023-01-25T03:59:54.983Z,6.33
2023-01-25T04:02:24.612Z,5.73
2023-01-25T04:04:54.106Z,5.37
2023-01-25T04:07:24.649Z,6.07
2023-01-25T04:09:54.217Z,6.60
2023-01-25T04:12:26.268Z,5.90
2023-01-25T04:14:55.816Z,6.60
2023-01-25T04:17:26.053Z,6.70
2023-01-25T04:20:00.167Z,5.70
2023-01-25T04:22:37.114Z,6.57
2023-01-25T04:25:08.769Z,6.40
2023-01-25T04:27:44.366Z,6.00
2023-01-25T04:30:17.859Z,6.37
2023-01-25T04:32:48.673Z,6.73
2023-01-25T04:35:23.740Z,6.97
2023-01-25T04:37:57.739Z,6.47
2023-01-25T04:40:31.253Z,6.57
2023-01-25T04:43:03.392Z,6.43
2023-01-25T04:45:33.925Z,6.53
2023-01-25T04:48:09.936Z,5.93
2023-01-25T04:50:42.117Z,5.80
2023-01-25T04:53:13.912Z,5.93
2023-01-25T04:55:43.678Z,6.13
2023-01-25T04:58:15.807Z,5.80
2023-01-25T05:00:46.424Z,6.27
2023-01-25T05:03:15.919Z,5.43
2023-01-25T05:05:48.082Z,6.40
2023-01-25T05:08:21.210Z,5.73
2023-01-25T05:10:51.026Z,6.17
2023-01-25T05:13:33.816Z,5.80
2023-01-25T05:16:23.659Z,5.93
2023-01-25T05:18:53.331Z,5.63
2023-01-25T05:21:38.410Z,5.07
2023-01-25T05:24:08.307Z,5.00
2023-01-25T05:26:50.482Z,5.67
2023-01-25T05:29:22.625Z,5.53
2023-01-25T05:32:01.772Z,5.03
2023-01-25T05:34:32.159Z,5.77
2023-01-25T05:37:01.783Z,6.03
2023-01-25T05:39:31.776Z,5.40
2023-01-25T05:42:01.377Z,5.87
2023-01-25T05:44:33.425Z,5.67
2023-01-25T05:47:04.399Z,6.07
2023-01-25T05:49:33.984Z,6.20
2023-01-25T05:52:05.496Z,5.47
2023-01-25T05:54:35.773Z,5.63
2023-01-25T05:57:07.839Z,5.13
2023-01-25T05:59:40.089Z,4.83
2023-01-25T06:02:11.888Z,5.30
2023-01-25T06:04:42.392Z,6.03
2023-01-25T06:07:13.241Z,5.53
2023-01-25T06:09:43.623Z,5.67
2023-01-25T06:12:13.139Z,5.60
2023-01-25T06:14:47.380Z,5.63
2023-01-25T06:17:17.043Z,5.33
2023-01-25T06:20:09.871Z,4.87
2023-01-25T06:22:40.188Z,5.70
2023-01-25T06:25:10.768Z,5.97
2023-01-25T06:27:40.454Z,6.00
2023-01-25T06:30:13.521Z,5.53
2023-01-25T06:32:43.438Z,7.60
2023-01-25T06:35:12.951Z,5.83
2023-01-25T06:37:42.587Z,5.80
2023-01-25T06:40:12.754Z,4.97
2023-01-25T06:42:42.320Z,5.77
2023-01-25T06:45:15.358Z,4.93
2023-01-25T06:47:44.929Z,4.90
2023-01-25T06:50:14.486Z,5.13
2023-01-25T06:52:44.389Z,5.33
2023-01-25T06:55:14.152Z,5.33
2023-01-25T06:57:43.653Z,5.37
2023-01-25T07:00:17.956Z,5.37
2023-01-25T07:02:47.517Z,5.83
2023-01-25T07:05:17.109Z,5.43
2023-01-25T07:07:47.735Z,5.33
2023-01-25T07:10:17.558Z,5.70
2023-01-25T07:12:47.218Z,5.43
2023-01-25T07:15:19.445Z,5.30
2023-01-25T07:17:49.061Z,5.47
2023-01-25T07:20:18.932Z,5.60
2023-01-25T07:22:48.425Z,5.23
2023-01-25T07:25:17.942Z,6.10
2023-01-25T07:27:47.503Z,6.43
2023-01-25T07:30:21.796Z,6.17
2023-01-25T07:32:51.396Z,5.10
2023-01-25T07:35:20.882Z,5.90
2023-01-25T07:37:50.584Z,5.97
2023-01-25T07:40:20.443Z,5.47
2023-01-25T07:42:49.915Z,6.33
2023-01-25T07:45:28.763Z,6.03
2023-01-25T07:47:58.364Z,5.03
2023-01-25T07:50:27.983Z,5.87
2023-01-25T07:52:58.437Z,6.33
2023-01-25T07:55:28.171Z,5.40
2023-01-25T07:57:58.219Z,5.70
2023-01-25T08:00:30.396Z,5.47
2023-01-25T08:03:00.050Z,4.93
2023-01-25T08:05:29.671Z,4.87
2023-01-25T08:07:59.178Z,5.13
2023-01-25T08:10:28.687Z,5.50
2023-01-25T08:12:58.636Z,5.90
2023-01-25T08:15:30.739Z,5.13
2023-01-25T08:18:02.167Z,5.47
2023-01-25T08:20:31.725Z,5.43
2023-01-25T08:23:01.213Z,5.57
2023-01-25T08:25:30.735Z,5.13
2023-01-25T08:28:00.251Z,6.27
2023-01-25T08:30:32.411Z,5.87
2023-01-25T08:33:03.539Z,5.30
2023-01-25T08:35:33.035Z,5.23
2023-01-25T08:38:02.550Z,5.07
2023-01-25T08:40:32.229Z,6.03
2023-01-25T08:43:01.731Z,5.50
2023-01-25T08:45:37.476Z,5.83
2023-01-25T08:48:07.370Z,5.80
2023-01-25T08:50:36.898Z,5.20
2023-01-25T08:53:06.690Z,5.13
2023-01-25T08:55:38.477Z,5.07
2023-01-25T08:58:11.163Z,5.90
2023-01-25T09:00:43.965Z,5.53
2023-01-25T09:03:13.773Z,5.73
2023-01-25T09:05:43.731Z,5.60
2023-01-25T09:08:13.315Z,4.73
2023-01-25T09:10:42.791Z,5.53
2023-01-25T09:13:13.053Z,5.57
2023-01-25T09:15:45.192Z,5.10
2023-01-25T09:18:15.590Z,4.33
2023-01-25T09:20:45.093Z,4.83
2023-01-25T09:23:14.580Z,5.80
2023-01-25T09:25:44.155Z,5.87
2023-01-25T09:28:14.009Z,6.63
2023-01-25T09:30:53.595Z,6.10
2023-01-25T09:33:44.590Z,6.07
2023-01-25T09:36:14.960Z,5.77
2023-01-25T09:38:45.350Z,5.50
2023-01-25T09:41:25.229Z,6.00
2023-01-25T09:44:13.707Z,5.77
2023-01-25T09:46:48.998Z,5.83
2023-01-25T09:49:28.115Z,6.07
2023-01-25T09:52:06.281Z,5.73
2023-01-25T09:54:46.460Z,5.27
2023-01-25T09:57:19.198Z,5.37
2023-01-25T09:59:50.170Z,6.40
2023-01-25T10:02:31.092Z,6.40
2023-01-25T10:05:08.363Z,5.63
2023-01-25T10:07:46.952Z,4.97
2023-01-25T10:10:20.590Z,5.47
2023-01-25T10:12:50.092Z,5.50
2023-01-25T10:15:23.337Z,5.47
2023-01-25T10:17:58.445Z,5.70
2023-01-25T10:20:34.487Z,5.33
2023-01-25T10:23:15.372Z,5.43
2023-01-25T10:25:46.272Z,5.50
2023-01-25T10:28:24.619Z,5.33
2023-01-25T10:30:58.137Z,5.50
2023-01-25T10:33:29.187Z,5.80
2023-01-25T10:36:03.925Z,5.93
2023-01-25T10:38:36.834Z,5.83
2023-01-25T10:41:08.109Z,5.40
2023-01-25T10:43:37.807Z,5.77
2023-01-25T10:46:08.058Z,5.73
2023-01-25T10:48:39.342Z,6.00
2023-01-25T10:51:11.685Z,5.50
2023-01-25T10:53:44.220Z,6.17
2023-01-25T10:56:24.017Z,5.27
2023-01-25T10:58:54.701Z,6.00
2023-01-25T11:01:29.545Z,5.60
2023-01-25T11:03:59.192Z,6.10
2023-01-25T11:06:34.974Z,6.13
2023-01-25T11:09:05.220Z,5.97
2023-01-25T11:11:36.483Z,5.67
2023-01-25T11:14:17.851Z,4.80
2023-01-25T11:16:49.280Z,5.37
2023-01-25T11:19:27.975Z,5.93
2023-01-25T11:22:01.011Z,5.40
2023-01-25T11:24:31.529Z,5.90
2023-01-25T11:27:17.696Z,5.60
2023-01-25T11:29:47.638Z,5.23
2023-01-25T11:32:20.510Z,5.30
2023-01-25T11:34:50.432Z,5.47
2023-01-25T11:37:26.965Z,4.83
2023-01-25T11:39:59.372Z,5.07
2023-01-25T11:42:34.813Z,5.13
2023-01-25T11:45:23.776Z,5.00
2023-01-25T11:48:01.791Z,5.20
2023-01-25T11:50:34.668Z,6.50
2023-01-25T11:53:23.124Z,5.47
2023-01-25T11:55:55.520Z,5.33
2023-01-25T11:58:38.975Z,6.03
2023-01-25T12:01:13.433Z,5.50
2023-01-25T12:04:03.337Z,5.47
2023-01-25T12:06:36.038Z,4.67
2023-01-25T12:09:27.175Z,5.33
2023-01-25T12:12:02.811Z,6.03
2023-01-25T12:14:38.910Z,6.47
2023-01-25T12:17:18.803Z,7.63
2023-01-25T12:19:58.119Z,5.53
2023-01-25T12:22:37.675Z,6.03
2023-01-25T12:25:16.567Z,5.10
2023-01-25T12:27:51.712Z,6.27
2023-01-25T12:30:24.530Z,4.80
2023-01-25T12:33:02.442Z,5.87
2023-01-25T12:35:43.213Z,5.90
2023-01-25T12:38:16.467Z,6.07
2023-01-25T12:40:51.916Z,7.27
2023-01-25T12:43:23.427Z,6.10
2023-01-25T12:45:54.020Z,5.40
2023-01-25T12:48:25.709Z,5.33
2023-01-25T12:50:57.433Z,4.90
2023-01-25T12:53:29.373Z,5.67
2023-01-25T12:56:02.069Z,5.93
2023-01-25T12:58:38.121Z,5.50
2023-01-25T13:01:11.739Z,5.30
2023-01-25T13:03:46.220Z,6.57
2023-01-25T13:06:22.112Z,5.60
2023-01-25T13:08:56.299Z,5.73
2023-01-25T13:11:29.868Z,5.90
2023-01-25T13:14:14.202Z,5.00
2023-01-25T13:16:44.986Z,5.27
2023-01-25T13:19:21.998Z,5.37
2023-01-25T13:21:53.005Z,5.97
2023-01-25T13:24:24.367Z,5.50
2023-01-25T13:27:07.137Z,5.93
2023-01-25T13:29:54.574Z,6.20
2023-01-25T13:32:39.145Z,5.27
2023-01-25T13:35:27.601Z,5.27
2023-01-25T13:38:01.219Z,5.57
2023-01-25T13:40:33.432Z,5.30
2023-01-25T13:43:07.035Z,5.60
2023-01-25T13:45:38.048Z,5.43
2023-01-25T13:48:14.012Z,5.87
2023-01-25T13:50:47.719Z,5.80
2023-01-25T13:53:22.807Z,5.90
2023-01-25T13:55:53.143Z,6.17
2023-01-25T13:58:26.061Z,5.80
2023-01-25T14:00:57.459Z,6.50
2023-01-25T14:03:29.169Z,6.80
2023-01-25T14:06:00.620Z,5.37
2023-01-25T14:08:30.406Z,5.50
2023-01-25T14:11:02.831Z,5.43
2023-01-25T14:13:35.013Z,5.27
2023-01-25T14:16:05.130Z,5.63
2023-01-25T14:18:35.576Z,6.37
2023-01-25T14:21:22.867Z,5.73
2023-01-25T14:23:52.812Z,5.30
2023-01-25T14:26:23.733Z,5.90
2023-01-25T14:29:02.242Z,6.30
2023-01-25T14:31:35.629Z,5.73
2023-01-25T14:34:06.314Z,5.53
2023-01-25T14:36:37.035Z,4.97
2023-01-25T14:39:16.511Z,5.70
2023-01-25T14:42:00.567Z,6.27
2023-01-25T14:44:33.906Z,5.37
2023-01-25T14:47:18.380Z,5.43
2023-01-25T14:49:47.957Z,5.43
2023-01-25T14:52:19.453Z,6.00
2023-01-25T14:54:53.216Z,6.00
2023-01-25T14:57:37.745Z,6.60
2023-01-25T15:00:21.990Z,6.10
2023-01-25T15:02:55.189Z,6.53
2023-01-25T15:05:27.759Z,5.63
2023-01-25T15:07:57.997Z,5.40
2023-01-25T15:10:28.267Z,5.60
2023-01-25T15:13:04.194Z,6.30
2023-01-25T15:15:52.502Z,6.37
2023-01-25T15:18:43.622Z,6.37
2023-01-25T15:21:13.604Z,5.93
2023-01-25T15:23:43.290Z,5.80
2023-01-25T15:26:16.727Z,6.30
2023-01-25T15:28:46.351Z,7.17
2023-01-25T15:31:21.326Z,7.67
2023-01-25T15:33:50.980Z,5.50
2023-01-25T15:36:20.736Z,6.53
2023-01-25T15:38:50.362Z,5.90
2023-01-25T15:41:20.431Z,5.67
2023-01-25T15:43:50.379Z,5.30
2023-01-25T15:46:24.134Z,5.80
2023-01-25T15:48:53.996Z,6.20
2023-01-25T15:51:23.831Z,6.57
2023-01-25T15:53:53.311Z,5.90
2023-01-25T15:56:24.332Z,6.77
2023-01-25T15:58:54.892Z,6.43
2023-01-25T16:01:28.072Z,6.70
2023-01-25T16:03:58.123Z,6.43
2023-01-25T16:06:40.124Z,7.80
2023-01-25T16:09:15.854Z,6.63
2023-01-25T16:11:45.527Z,6.63
2023-01-25T16:14:15.024Z,6.47
2023-01-25T16:16:49.452Z,6.33
2023-01-25T16:19:20.264Z,6.43
2023-01-25T16:21:49.811Z,6.13
2023-01-25T16:24:19.595Z,8.60
2023-01-25T16:26:52.357Z,7.10
2023-01-25T16:29:23.352Z,6.33
2023-01-25T16:31:56.166Z,6.40
2023-01-25T16:34:26.085Z,5.83
2023-01-25T16:36:57.714Z,6.00
2023-01-25T16:39:28.466Z,5.80
2023-01-25T16:41:58.462Z,5.60
2023-01-25T16:44:28.015Z,5.93
2023-01-25T16:47:00.100Z,5.67
2023-01-25T16:49:30.735Z,5.70
2023-01-25T16:52:00.588Z,5.87
2023-01-25T16:54:31.244Z,5.70
2023-01-25T16:57:08.670Z,5.80
2023-01-25T16:59:48.179Z,5.80
2023-01-25T17:02:21.039Z,6.87
2023-01-25T17:04:50.687Z,5.60
2023-01-25T17:07:20.214Z,6.80
2023-01-25T17:09:49.921Z,7.43
2023-01-25T17:12:19.796Z,7.93
2023-01-25T17:14:49.308Z,6.53
2023-01-25T17:17:22.110Z,7.10
2023-01-25T17:19:52.400Z,7.87
2023-01-25T17:22:22.019Z,7.57
2023-01-25T17:24:51.486Z,7.40
2023-01-25T17:27:21.488Z,6.77
2023-01-25T17:29:50.974Z,7.63
2023-01-25T17:32:24.019Z,7.43
2023-01-25T17:34:53.852Z,7.10
2023-01-25T17:37:23.363Z,8.03
2023-01-25T17:39:52.896Z,7.53
2023-01-25T17:42:22.420Z,7.37
2023-01-25T17:44:52.048Z,7.57
2023-01-25T17:47:24.123Z,7.20
2023-01-25T17:49:53.783Z,7.77
2023-01-25T17:52:23.291Z,7.60
2023-01-25T17:54:52.843Z,9.20
2023-01-25T17:57:24.225Z,8.37
2023-01-25T17:59:53.797Z,7.53
2023-01-25T18:02:25.977Z,8.03
2023-01-25T18:04:57.855Z,6.97
2023-01-25T18:07:27.420Z,7.07
2023-01-25T18:09:56.936Z,7.27
2023-01-25T18:12:27.358Z,8.03
2023-01-25T18:14:56.828Z,6.67
2023-01-25T18:17:28.935Z,7.33
2023-01-25T18:19:59.188Z,7.37
2023-01-25T18:22:28.797Z,7.87
2023-01-25T18:24:58.368Z,8.67
2023-01-25T18:27:28.633Z,8.17
2023-01-25T18:30:02.022Z,7.57
2023-01-25T18:32:35.336Z,7.67
2023-01-25T18:35:04.914Z,7.10
2023-01-25T18:37:39.561Z,7.43
2023-01-25T18:40:09.990Z,6.97
2023-01-25T18:42:39.551Z,7.60
2023-01-25T18:45:10.203Z,8.13
2023-01-25T18:47:42.649Z,7.43
2023-01-25T18:50:14.016Z,8.47
2023-01-25T18:52:43.639Z,7.63
2023-01-25T18:55:13.493Z,6.57
2023-01-25T18:57:44.634Z,7.13
2023-01-25T19:00:15.061Z,7.17
2023-01-25T19:02:47.672Z,7.40
2023-01-25T19:05:18.725Z,7.53
2023-01-25T19:07:48.365Z,7.63
2023-01-25T19:10:17.917Z,7.47
2023-01-25T19:12:47.393Z,8.97
2023-01-25T19:15:17.202Z,7.93
2023-01-25T19:17:49.285Z,7.80
2023-01-25T19:20:19.295Z,8.73
2023-01-25T19:22:48.793Z,9.27
2023-01-25T19:25:18.780Z,8.50
2023-01-25T19:27:48.317Z,8.07
2023-01-25T19:30:18.288Z,8.00
2023-01-25T19:32:50.538Z,8.33
2023-01-25T19:35:20.162Z,7.90
2023-01-25T19:37:49.603Z,8.87
2023-01-25T19:40:20.524Z,8.57
2023-01-25T19:42:50.224Z,9.83
2023-01-25T19:45:19.744Z,8.80
2023-01-25T19:47:51.839Z,8.50
2023-01-25T19:50:21.386Z,10.07
2023-01-25T19:52:50.904Z,9.13
2023-01-25T19:55:20.436Z,8.50
2023-01-25T19:57:50.019Z,8.60
2023-01-25T20:00:19.796Z,9.10
2023-01-25T20:02:52.104Z,9.53
2023-01-25T20:05:21.711Z,8.53
2023-01-25T20:07:51.214Z,8.80
2023-01-25T20:10:20.821Z,9.50
2023-01-25T20:12:50.307Z,9.27
2023-01-25T20:15:20.046Z,8.63
2023-01-25T20:17:52.546Z,8.33
2023-01-25T20:20:22.148Z,8.77
2023-01-25T20:22:52.511Z,9.23
2023-01-25T20:25:22.050Z,8.83
2023-01-25T20:27:51.976Z,9.13
2023-01-25T20:30:21.535Z,9.43
2023-01-25T20:32:53.859Z,9.13
2023-01-25T20:35:23.499Z,9.17
2023-01-25T20:37:53.465Z,9.63
2023-01-25T20:40:23.105Z,9.67
2023-01-25T20:42:52.679Z,8.20
2023-01-25T20:45:22.166Z,8.80
2023-01-25T20:47:54.250Z,8.93
2023-01-25T20:50:23.882Z,10.53
2023-01-25T20:52:53.427Z,9.87
2023-01-25T20:55:23.047Z,8.80
2023-01-25T20:57:54.368Z,8.27
2023-01-25T21:00:25.641Z,9.03
2023-01-25T21:02:57.724Z,9.40
2023-01-25T21:05:27.841Z,8.50
2023-01-25T21:07:57.299Z,9.57
2023-01-25T21:10:26.826Z,8.80
2023-01-25T21:12:56.374Z,10.23
2023-01-25T21:15:25.931Z,9.60
2023-01-25T21:17:58.239Z,9.23
2023-01-25T21:20:27.798Z,10.30
2023-01-25T21:22:57.274Z,8.60
2023-01-25T21:25:26.957Z,8.83
2023-01-25T21:27:56.495Z,8.90
2023-01-25T21:30:28.469Z,9.20
2023-01-25T21:33:00.584Z,8.57
2023-01-25T21:35:30.169Z,9.60
2023-01-25T21:37:59.654Z,10.10
2023-01-25T21:40:30.582Z,9.90
2023-01-25T21:43:00.442Z,9.37
2023-01-25T21:45:42.437Z,9.73
2023-01-25T21:48:34.622Z,10.03
2023-01-25T21:51:25.531Z,10.57
2023-01-25T21:53:55.155Z,8.83
2023-01-25T21:56:24.734Z,8.77
2023-01-25T21:58:54.362Z,9.77
2023-01-25T22:01:24.150Z,9.57
2023-01-25T22:03:56.397Z,9.20
2023-01-25T22:06:25.944Z,9.10
2023-01-25T22:08:55.480Z,8.73
2023-01-25T22:11:25.366Z,8.73
2023-01-25T22:13:54.864Z,7.50
2023-01-25T22:16:24.733Z,7.67
2023-01-25T22:18:56.885Z,8.50
2023-01-25T22:21:27.406Z,6.83
2023-01-25T22:23:57.000Z,8.70
2023-01-25T22:26:27.318Z,8.63
2023-01-25T22:28:58.124Z,7.33
2023-01-25T22:31:28.592Z,8.30
2023-01-25T22:34:01.425Z,8.70
2023-01-25T22:36:31.660Z,8.23
2023-01-25T22:39:01.609Z,9.27
2023-01-25T22:41:32.704Z,9.07
2023-01-25T22:44:02.327Z,10.10
2023-01-25T22:46:32.195Z,8.47
2023-01-25T22:49:04.835Z,10.00
2023-01-25T22:51:34.610Z,9.10
2023-01-25T22:54:05.252Z,9.77
2023-01-25T22:56:35.373Z,9.63
2023-01-25T22:59:06.718Z,8.60
2023-01-25T23:01:37.777Z,8.20
2023-01-25T23:04:10.029Z,9.13
2023-01-25T23:06:39.712Z,8.37
2023-01-25T23:09:09.542Z,9.33
2023-01-25T23:11:39.743Z,9.53
2023-01-25T23:14:22.295Z,10.33
2023-01-25T23:16:51.837Z,9.97
2023-01-25T23:19:21.289Z,9.83
2023-01-25T23:21:50.885Z,8.87
2023-01-25T23:24:20.382Z,8.30
2023-01-25T23:26:50.024Z,9.70
2023-01-25T23:29:19.525Z,9.30
2023-01-25T23:31:49.044Z,10.07
2023-01-25T23:34:18.543Z,8.93
2023-01-25T23:36:50.657Z,9.53
2023-01-25T23:39:20.249Z,9.30
2023-01-25T23:41:51.650Z,9.20
2023-01-25T23:44:21.227Z,8.47
2023-01-25T23:46:51.091Z,8.80
2023-01-25T23:49:20.595Z,8.77
2023-01-25T23:51:52.643Z,8.83
2023-01-25T23:54:22.209Z,8.73
2023-01-25T23:56:51.680Z,8.67
2023-01-25T23:59:21.209Z,9.07
